Portelândia Airstrip

BR-0050 · 戈亚斯州, 巴西

METAR BR-0050 · Portelândia Airstrip

26 二月 21:00 LT
38m
使用的METAR站距离机场375 km。
罗盘
风向 的 风向 080°
风: 9 kt, 3 beaufort

添加一条跑道以查看侧风和逆风信息。

添置 跑道
0 ft 1.000 2.000 3.000 4.000 5.000
CAVOK
METAR SBGO 270000Z 08009KT CAVOK 26/14 Q1016

METAR Portelândia Airstrip - BR-0050

Portelândia Airstrip是,巴西中的小机场。 该机场位于纬度-17,34940和经度-52,66320。 这个机场没有ICAO代码,我们使用BR-0050作为参考。 机场在Brasilia FIR中。

该航空气象观测是针对Santa Genoveva Airport在2024年2月26日 21:00, 当地时间进行的。

机场观察

风向为080°,速度为9 kt。

天气为CAVOK。这意味着在5.000 ft或MSA(最低安全高度)以下(以较高者为准)以下没有云。这也意味着没有观测到积雨云或高耸的积云,可见度为10 km 或者更多或更高。此外,不会有雾,降雨或其他重要天气。

温度和风寒是26 °C。 露点为14 °C,相对湿度为48%。 海平面上的气压为1016 hPa (QNH)。

白天

今天,太阳从06:29升起,在18:57降落。 这适用于Portelândia Airstrip,世界夏令时可能有所不同。 当地时间与世界标准时间之间的时差为-3 小时。 当前,没有夏令时有效。

公司介绍

我们没有关于这个机场的公司信息。

体会

到Vliegles.nl去找飞行课程,跳伞和其他飞行体验。 浏览页面,了解Portelândia Airstrip附近所有可用的活动。 你也可以使用搜索功能来寻找你所在地附近的特定飞行课程、跳伞或其他飞行体验。

温度 & 天气

温度 26 °C
露点 14 °C
相对湿度 48%
Kp-index 2 (0-9)

白天

日出
06:15 (8:38)
中午
12:29
日落
18:43

小工具

你想在你的网站上有一个关于Portelândia Airstrip的当前航空天气(METAR)的小部件吗?

显示HTML代码
?>